sensor_id;sensor_type;location;lat;lon;timestamp;P1;durP1;ratioP1;P2;durP2;ratioP2
23222;SDS011;11780;13.904;100.620;2023-04-07T00:01:19;32.65;;;29.02;;
23222;SDS011;11780;13.904;100.620;2023-04-07T00:03:50;34.25;;;30.73;;
23222;SDS011;11780;13.904;100.620;2023-04-07T00:06:20;33.70;;;30.20;;
23222;SDS011;11780;13.904;100.620;2023-04-07T00:08:51;33.67;;;30.00;;
23222;SDS011;11780;13.904;100.620;2023-04-07T00:11:21;32.50;;;29.08;;
23222;SDS011;11780;13.904;100.620;2023-04-07T00:13:51;32.78;;;29.55;;
23222;SDS011;11780;13.904;100.620;2023-04-07T00:16:22;33.00;;;29.73;;
23222;SDS011;11780;13.904;100.620;2023-04-07T00:18:53;33.28;;;29.98;;
23222;SDS011;11780;13.904;100.620;2023-04-07T00:21:32;34.42;;;30.80;;
23222;SDS011;11780;13.904;100.620;2023-04-07T00:24:08;35.35;;;31.75;;
23222;SDS011;11780;13.904;100.620;2023-04-07T00:26:42;35.08;;;30.60;;
23222;SDS011;11780;13.904;100.620;2023-04-07T00:29:39;34.85;;;31.40;;
23222;SDS011;11780;13.904;100.620;2023-04-07T00:32:12;33.97;;;30.67;;
23222;SDS011;11780;13.904;100.620;2023-04-07T00:34:42;32.83;;;29.47;;
23222;SDS011;11780;13.904;100.620;2023-04-07T00:37:12;34.40;;;30.90;;
23222;SDS011;11780;13.904;100.620;2023-04-07T00:39:43;33.80;;;30.70;;
23222;SDS011;11780;13.904;100.620;2023-04-07T00:42:15;33.55;;;30.05;;
23222;SDS011;11780;13.904;100.620;2023-04-07T00:44:45;32.97;;;29.60;;
23222;SDS011;11780;13.904;100.620;2023-04-07T00:47:15;33.85;;;30.60;;
23222;SDS011;11780;13.904;100.620;2023-04-07T00:49:46;33.88;;;30.42;;
23222;SDS011;11780;13.904;100.620;2023-04-07T00:52:16;33.83;;;30.55;;
23222;SDS011;11780;13.904;100.620;2023-04-07T00:54:55;32.63;;;29.35;;
23222;SDS011;11780;13.904;100.620;2023-04-07T00:57:28;32.25;;;29.13;;
23222;SDS011;11780;13.904;100.620;2023-04-07T00:59:58;32.77;;;29.47;;
23222;SDS011;11780;13.904;100.620;2023-04-07T01:02:35;31.05;;;28.00;;
23222;SDS011;11780;13.904;100.620;2023-04-07T01:05:13;31.85;;;28.65;;
23222;SDS011;11780;13.904;100.620;2023-04-07T01:10:42;32.58;;;29.20;;
23222;SDS011;11780;13.904;100.620;2023-04-07T01:16:03;35.10;;;31.05;;
23222;SDS011;11780;13.904;100.620;2023-04-07T01:18:43;33.90;;;30.50;;
23222;SDS011;11780;13.904;100.620;2023-04-07T01:21:17;30.52;;;27.58;;
23222;SDS011;11780;13.904;100.620;2023-04-07T01:26:36;33.00;;;29.55;;
23222;SDS011;11780;13.904;100.620;2023-04-07T01:32:05;34.42;;;30.80;;
23222;SDS011;11780;13.904;100.620;2023-04-07T01:34:40;35.22;;;31.48;;
23222;SDS011;11780;13.904;100.620;2023-04-07T01:37:11;32.58;;;29.25;;
23222;SDS011;11780;13.904;100.620;2023-04-07T01:39:42;33.47;;;30.13;;
23222;SDS011;11780;13.904;100.620;2023-04-07T01:42:13;34.05;;;30.55;;
23222;SDS011;11780;13.904;100.620;2023-04-07T01:44:45;33.53;;;30.17;;
23222;SDS011;11780;13.904;100.620;2023-04-07T01:47:16;33.92;;;30.33;;
23222;SDS011;11780;13.904;100.620;2023-04-07T01:49:47;32.28;;;29.02;;
23222;SDS011;11780;13.904;100.620;2023-04-07T01:52:20;32.15;;;28.98;;
23222;SDS011;11780;13.904;100.620;2023-04-07T01:54:52;32.65;;;29.10;;
23222;SDS011;11780;13.904;100.620;2023-04-07T01:57:24;32.88;;;29.55;;
23222;SDS011;11780;13.904;100.620;2023-04-07T02:00:00;32.13;;;28.92;;
23222;SDS011;11780;13.904;100.620;2023-04-07T02:02:40;34.30;;;30.48;;
23222;SDS011;11780;13.904;100.620;2023-04-07T02:05:16;32.90;;;29.58;;
23222;SDS011;11780;13.904;100.620;2023-04-07T02:07:51;34.92;;;31.40;;
23222;SDS011;11780;13.904;100.620;2023-04-07T02:10:30;32.97;;;29.77;;
23222;SDS011;11780;13.904;100.620;2023-04-07T02:13:04;35.38;;;31.75;;
23222;SDS011;11780;13.904;100.620;2023-04-07T02:15:37;33.00;;;29.90;;
23222;SDS011;11780;13.904;100.620;2023-04-07T02:18:10;31.98;;;28.70;;
23222;SDS011;11780;13.904;100.620;2023-04-07T02:20:43;35.13;;;31.63;;
23222;SDS011;11780;13.904;100.620;2023-04-07T02:23:14;33.80;;;30.58;;
23222;SDS011;11780;13.904;100.620;2023-04-07T02:25:45;35.03;;;31.23;;
23222;SDS011;11780;13.904;100.620;2023-04-07T02:28:15;33.43;;;30.43;;
23222;SDS011;11780;13.904;100.620;2023-04-07T02:30:46;34.45;;;31.00;;
23222;SDS011;11780;13.904;100.620;2023-04-07T02:33:16;34.20;;;31.00;;
23222;SDS011;11780;13.904;100.620;2023-04-07T02:35:46;33.58;;;30.35;;
23222;SDS011;11780;13.904;100.620;2023-04-07T02:38:16;34.30;;;30.73;;
23222;SDS011;11780;13.904;100.620;2023-04-07T02:40:46;36.17;;;32.83;;
23222;SDS011;11780;13.904;100.620;2023-04-07T02:43:16;34.95;;;31.42;;
23222;SDS011;11780;13.904;100.620;2023-04-07T02:45:50;35.08;;;31.85;;
23222;SDS011;11780;13.904;100.620;2023-04-07T02:48:22;33.13;;;30.23;;
23222;SDS011;11780;13.904;100.620;2023-04-07T02:50:52;34.45;;;30.95;;
23222;SDS011;11780;13.904;100.620;2023-04-07T02:53:22;33.87;;;30.77;;
23222;SDS011;11780;13.904;100.620;2023-04-07T02:55:53;33.77;;;30.57;;
23222;SDS011;11780;13.904;100.620;2023-04-07T02:58:23;36.42;;;32.88;;
23222;SDS011;11780;13.904;100.620;2023-04-07T03:00:53;34.47;;;30.85;;
23222;SDS011;11780;13.904;100.620;2023-04-07T03:03:27;36.25;;;32.75;;
23222;SDS011;11780;13.904;100.620;2023-04-07T03:06:09;34.60;;;31.08;;
23222;SDS011;11780;13.904;100.620;2023-04-07T03:08:59;34.65;;;31.02;;
23222;SDS011;11780;13.904;100.620;2023-04-07T03:11:30;35.20;;;31.48;;
23222;SDS011;11780;13.904;100.620;2023-04-07T03:14:00;36.55;;;32.80;;
23222;SDS011;11780;13.904;100.620;2023-04-07T03:16:31;36.45;;;32.70;;
23222;SDS011;11780;13.904;100.620;2023-04-07T03:19:10;36.17;;;32.78;;
23222;SDS011;11780;13.904;100.620;2023-04-07T03:21:49;37.60;;;33.35;;
23222;SDS011;11780;13.904;100.620;2023-04-07T03:24:19;37.90;;;33.83;;
23222;SDS011;11780;13.904;100.620;2023-04-07T03:26:50;35.75;;;32.33;;
23222;SDS011;11780;13.904;100.620;2023-04-07T03:29:34;40.55;;;34.58;;
23222;SDS011;11780;13.904;100.620;2023-04-07T03:32:07;39.45;;;34.35;;
23222;SDS011;11780;13.904;100.620;2023-04-07T03:34:37;42.38;;;37.95;;
23222;SDS011;11780;13.904;100.620;2023-04-07T03:37:07;44.75;;;36.53;;
23222;SDS011;11780;13.904;100.620;2023-04-07T03:39:37;45.20;;;40.10;;
23222;SDS011;11780;13.904;100.620;2023-04-07T03:42:31;41.35;;;37.10;;
23222;SDS011;11780;13.904;100.620;2023-04-07T03:45:05;44.70;;;40.03;;
23222;SDS011;11780;13.904;100.620;2023-04-07T03:47:40;49.25;;;39.60;;
23222;SDS011;11780;13.904;100.620;2023-04-07T03:50:11;44.50;;;39.00;;
23222;SDS011;11780;13.904;100.620;2023-04-07T03:53:07;43.45;;;38.50;;
23222;SDS011;11780;13.904;100.620;2023-04-07T03:55:37;41.30;;;36.90;;
23222;SDS011;11780;13.904;100.620;2023-04-07T03:58:17;43.40;;;38.28;;
23222;SDS011;11780;13.904;100.620;2023-04-07T04:00:48;45.63;;;38.28;;
23222;SDS011;11780;13.904;100.620;2023-04-07T04:03:18;41.30;;;36.93;;
23222;SDS011;11780;13.904;100.620;2023-04-07T04:06:03;46.13;;;39.38;;
23222;SDS011;11780;13.904;100.620;2023-04-07T04:08:34;44.65;;;39.75;;
23222;SDS011;11780;13.904;100.620;2023-04-07T04:11:04;42.67;;;38.03;;
23222;SDS011;11780;13.904;100.620;2023-04-07T04:13:42;42.80;;;38.40;;
23222;SDS011;11780;13.904;100.620;2023-04-07T04:16:13;43.35;;;38.58;;
23222;SDS011;11780;13.904;100.620;2023-04-07T04:18:45;44.15;;;38.90;;
23222;SDS011;11780;13.904;100.620;2023-04-07T04:21:16;44.33;;;36.77;;
23222;SDS011;11780;13.904;100.620;2023-04-07T04:23:46;42.20;;;37.87;;
23222;SDS011;11780;13.904;100.620;2023-04-07T04:26:17;45.30;;;38.77;;
23222;SDS011;11780;13.904;100.620;2023-04-07T04:28:47;45.15;;;36.97;;
23222;SDS011;11780;13.904;100.620;2023-04-07T04:31:19;41.90;;;37.08;;
23222;SDS011;11780;13.904;100.620;2023-04-07T04:33:50;42.33;;;37.97;;
23222;SDS011;11780;13.904;100.620;2023-04-07T04:36:22;40.08;;;36.05;;
23222;SDS011;11780;13.904;100.620;2023-04-07T04:38:57;40.20;;;35.97;;
23222;SDS011;11780;13.904;100.620;2023-04-07T04:41:28;40.47;;;36.13;;
23222;SDS011;11780;13.904;100.620;2023-04-07T04:46:30;44.97;;;36.80;;
23222;SDS011;11780;13.904;100.620;2023-04-07T04:49:01;40.17;;;35.80;;
23222;SDS011;11780;13.904;100.620;2023-04-07T04:51:33;38.08;;;34.00;;
23222;SDS011;11780;13.904;100.620;2023-04-07T04:54:11;40.38;;;36.10;;
23222;SDS011;11780;13.904;100.620;2023-04-07T04:59:12;38.95;;;34.83;;
23222;SDS011;11780;13.904;100.620;2023-04-07T05:01:52;38.73;;;34.40;;
23222;SDS011;11780;13.904;100.620;2023-04-07T05:04:23;37.08;;;33.08;;
23222;SDS011;11780;13.904;100.620;2023-04-07T05:07:00;37.83;;;34.03;;
23222;SDS011;11780;13.904;100.620;2023-04-07T05:09:31;38.00;;;34.00;;
23222;SDS011;11780;13.904;100.620;2023-04-07T05:12:01;37.30;;;33.30;;
23222;SDS011;11780;13.904;100.620;2023-04-07T05:14:37;36.20;;;32.38;;
23222;SDS011;11780;13.904;100.620;2023-04-07T05:17:08;36.45;;;32.95;;
23222;SDS011;11780;13.904;100.620;2023-04-07T05:19:38;41.05;;;31.90;;
23222;SDS011;11780;13.904;100.620;2023-04-07T05:22:21;36.72;;;30.42;;
23222;SDS011;11780;13.904;100.620;2023-04-07T05:24:51;36.45;;;32.45;;
23222;SDS011;11780;13.904;100.620;2023-04-07T05:27:22;35.47;;;31.85;;
23222;SDS011;11780;13.904;100.620;2023-04-07T05:29:55;39.20;;;33.55;;
23222;SDS011;11780;13.904;100.620;2023-04-07T05:32:31;36.03;;;32.50;;
23222;SDS011;11780;13.904;100.620;2023-04-07T05:35:08;36.10;;;30.80;;
23222;SDS011;11780;13.904;100.620;2023-04-07T05:37:47;36.50;;;32.70;;
23222;SDS011;11780;13.904;100.620;2023-04-07T05:40:17;36.85;;;32.33;;
23222;SDS011;11780;13.904;100.620;2023-04-07T05:42:48;40.25;;;33.28;;
23222;SDS011;11780;13.904;100.620;2023-04-07T05:45:19;37.58;;;32.45;;
23222;SDS011;11780;13.904;100.620;2023-04-07T05:47:50;35.13;;;31.40;;
23222;SDS011;11780;13.904;100.620;2023-04-07T05:50:26;35.38;;;31.67;;
23222;SDS011;11780;13.904;100.620;2023-04-07T05:52:59;35.05;;;30.50;;
23222;SDS011;11780;13.904;100.620;2023-04-07T05:55:30;34.47;;;30.87;;
23222;SDS011;11780;13.904;100.620;2023-04-07T06:00:32;35.17;;;31.53;;
23222;SDS011;11780;13.904;100.620;2023-04-07T06:03:10;36.83;;;30.25;;
23222;SDS011;11780;13.904;100.620;2023-04-07T06:05:53;34.65;;;31.00;;
23222;SDS011;11780;13.904;100.620;2023-04-07T06:08:25;33.38;;;29.77;;
23222;SDS011;11780;13.904;100.620;2023-04-07T06:10:55;30.60;;;27.50;;
23222;SDS011;11780;13.904;100.620;2023-04-07T06:13:26;31.52;;;28.30;;
23222;SDS011;11780;13.904;100.620;2023-04-07T06:15:56;31.05;;;27.83;;
23222;SDS011;11780;13.904;100.620;2023-04-07T06:18:26;30.90;;;27.70;;
23222;SDS011;11780;13.904;100.620;2023-04-07T06:20:57;30.42;;;27.33;;
23222;SDS011;11780;13.904;100.620;2023-04-07T06:23:28;29.35;;;26.33;;
23222;SDS011;11780;13.904;100.620;2023-04-07T06:25:58;30.05;;;26.85;;
23222;SDS011;11780;13.904;100.620;2023-04-07T06:28:28;30.30;;;27.07;;
23222;SDS011;11780;13.904;100.620;2023-04-07T06:30:59;28.03;;;25.30;;
23222;SDS011;11780;13.904;100.620;2023-04-07T06:33:29;28.30;;;25.60;;
23222;SDS011;11780;13.904;100.620;2023-04-07T06:35:59;30.85;;;27.10;;
23222;SDS011;11780;13.904;100.620;2023-04-07T06:38:30;27.67;;;25.05;;
23222;SDS011;11780;13.904;100.620;2023-04-07T06:41:01;27.83;;;24.97;;
23222;SDS011;11780;13.904;100.620;2023-04-07T06:43:31;29.03;;;25.97;;
23222;SDS011;11780;13.904;100.620;2023-04-07T06:46:03;27.80;;;24.92;;
23222;SDS011;11780;13.904;100.620;2023-04-07T06:48:33;28.43;;;25.60;;
23222;SDS011;11780;13.904;100.620;2023-04-07T06:51:03;26.23;;;23.55;;
23222;SDS011;11780;13.904;100.620;2023-04-07T06:53:34;26.30;;;23.75;;
23222;SDS011;11780;13.904;100.620;2023-04-07T06:56:08;23.17;;;20.97;;
23222;SDS011;11780;13.904;100.620;2023-04-07T06:58:40;23.83;;;21.60;;
23222;SDS011;11780;13.904;100.620;2023-04-07T07:01:10;27.67;;;24.05;;
23222;SDS011;11780;13.904;100.620;2023-04-07T07:03:40;24.85;;;22.20;;
23222;SDS011;11780;13.904;100.620;2023-04-07T07:06:10;26.02;;;23.27;;
23222;SDS011;11780;13.904;100.620;2023-04-07T07:11:11;24.85;;;22.38;;
23222;SDS011;11780;13.904;100.620;2023-04-07T07:13:41;23.97;;;21.47;;
23222;SDS011;11780;13.904;100.620;2023-04-07T07:16:13;25.35;;;22.75;;
23222;SDS011;11780;13.904;100.620;2023-04-07T07:18:44;21.13;;;19.23;;
23222;SDS011;11780;13.904;100.620;2023-04-07T07:21:14;21.45;;;19.15;;
23222;SDS011;11780;13.904;100.620;2023-04-07T07:26:16;21.77;;;19.63;;
23222;SDS011;11780;13.904;100.620;2023-04-07T07:28:46;19.87;;;17.93;;
23222;SDS011;11780;13.904;100.620;2023-04-07T07:31:16;21.13;;;19.00;;
23222;SDS011;11780;13.904;100.620;2023-04-07T07:33:47;21.50;;;19.25;;
23222;SDS011;11780;13.904;100.620;2023-04-07T07:36:19;22.38;;;19.25;;
23222;SDS011;11780;13.904;100.620;2023-04-07T07:38:50;20.60;;;18.07;;
23222;SDS011;11780;13.904;100.620;2023-04-07T07:41:20;19.23;;;16.05;;
23222;SDS011;11780;13.904;100.620;2023-04-07T07:43:50;20.10;;;17.55;;
23222;SDS011;11780;13.904;100.620;2023-04-07T07:46:21;19.90;;;16.50;;
23222;SDS011;11780;13.904;100.620;2023-04-07T07:48:54;20.13;;;18.23;;
23222;SDS011;11780;13.904;100.620;2023-04-07T07:51:24;19.83;;;17.87;;
23222;SDS011;11780;13.904;100.620;2023-04-07T07:53:56;21.23;;;16.67;;
23222;SDS011;11780;13.904;100.620;2023-04-07T07:56:26;18.42;;;16.20;;
23222;SDS011;11780;13.904;100.620;2023-04-07T07:58:57;18.73;;;16.87;;
23222;SDS011;11780;13.904;100.620;2023-04-07T08:01:27;17.23;;;15.40;;
23222;SDS011;11780;13.904;100.620;2023-04-07T08:03:57;17.08;;;15.38;;
23222;SDS011;11780;13.904;100.620;2023-04-07T08:06:28;17.88;;;15.82;;
23222;SDS011;11780;13.904;100.620;2023-04-07T08:08:59;17.48;;;15.75;;
23222;SDS011;11780;13.904;100.620;2023-04-07T08:11:29;17.55;;;15.50;;
23222;SDS011;11780;13.904;100.620;2023-04-07T08:14:00;17.63;;;15.88;;
23222;SDS011;11780;13.904;100.620;2023-04-07T08:16:30;18.33;;;16.35;;
23222;SDS011;11780;13.904;100.620;2023-04-07T08:19:00;18.67;;;16.77;;
23222;SDS011;11780;13.904;100.620;2023-04-07T08:21:30;19.83;;;15.93;;
23222;SDS011;11780;13.904;100.620;2023-04-07T08:24:01;19.77;;;17.27;;
23222;SDS011;11780;13.904;100.620;2023-04-07T08:26:31;21.00;;;17.95;;
23222;SDS011;11780;13.904;100.620;2023-04-07T08:29:02;20.63;;;17.65;;
23222;SDS011;11780;13.904;100.620;2023-04-07T08:31:32;20.52;;;17.00;;
23222;SDS011;11780;13.904;100.620;2023-04-07T08:34:02;19.63;;;17.67;;
23222;SDS011;11780;13.904;100.620;2023-04-07T08:36:32;19.83;;;16.88;;
23222;SDS011;11780;13.904;100.620;2023-04-07T08:39:03;20.08;;;17.85;;
23222;SDS011;11780;13.904;100.620;2023-04-07T08:41:38;19.73;;;17.63;;
23222;SDS011;11780;13.904;100.620;2023-04-07T08:44:09;24.88;;;17.83;;
23222;SDS011;11780;13.904;100.620;2023-04-07T08:46:41;18.90;;;16.58;;
23222;SDS011;11780;13.904;100.620;2023-04-07T08:49:13;21.98;;;18.25;;
23222;SDS011;11780;13.904;100.620;2023-04-07T08:51:46;19.88;;;17.15;;
23222;SDS011;11780;13.904;100.620;2023-04-07T08:54:17;21.63;;;17.00;;
23222;SDS011;11780;13.904;100.620;2023-04-07T08:56:49;19.77;;;17.02;;
23222;SDS011;11780;13.904;100.620;2023-04-07T09:01:55;24.58;;;18.08;;
23222;SDS011;11780;13.904;100.620;2023-04-07T09:04:25;22.70;;;18.27;;
23222;SDS011;11780;13.904;100.620;2023-04-07T09:06:56;22.77;;;17.87;;
23222;SDS011;11780;13.904;100.620;2023-04-07T09:09:26;21.45;;;16.95;;
23222;SDS011;11780;13.904;100.620;2023-04-07T09:11:56;19.88;;;17.35;;
23222;SDS011;11780;13.904;100.620;2023-04-07T09:14:27;27.40;;;18.47;;
23222;SDS011;11780;13.904;100.620;2023-04-07T09:16:57;24.63;;;18.50;;
23222;SDS011;11780;13.904;100.620;2023-04-07T09:21:59;28.33;;;18.45;;
23222;SDS011;11780;13.904;100.620;2023-04-07T09:24:29;23.35;;;17.92;;
23222;SDS011;11780;13.904;100.620;2023-04-07T09:27:15;26.83;;;17.30;;
23222;SDS011;11780;13.904;100.620;2023-04-07T09:29:47;21.92;;;15.98;;
23222;SDS011;11780;13.904;100.620;2023-04-07T09:32:36;23.77;;;17.97;;
23222;SDS011;11780;13.904;100.620;2023-04-07T09:35:15;27.25;;;17.05;;
23222;SDS011;11780;13.904;100.620;2023-04-07T09:37:59;20.17;;;16.70;;
23222;SDS011;11780;13.904;100.620;2023-04-07T09:40:36;24.17;;;17.60;;
23222;SDS011;11780;13.904;100.620;2023-04-07T09:43:13;19.20;;;15.30;;
23222;SDS011;11780;13.904;100.620;2023-04-07T09:45:47;20.88;;;17.35;;
23222;SDS011;11780;13.904;100.620;2023-04-07T09:48:19;19.23;;;16.03;;
23222;SDS011;11780;13.904;100.620;2023-04-07T09:50:50;20.10;;;17.27;;
23222;SDS011;11780;13.904;100.620;2023-04-07T09:53:20;20.13;;;16.77;;
23222;SDS011;11780;13.904;100.620;2023-04-07T09:56:10;25.73;;;16.92;;
23222;SDS011;11780;13.904;100.620;2023-04-07T09:58:40;22.67;;;17.50;;
23222;SDS011;11780;13.904;100.620;2023-04-07T10:01:14;20.98;;;16.20;;
23222;SDS011;11780;13.904;100.620;2023-04-07T10:03:46;19.65;;;16.45;;
23222;SDS011;11780;13.904;100.620;2023-04-07T10:06:19;22.10;;;17.33;;
23222;SDS011;11780;13.904;100.620;2023-04-07T10:08:50;21.13;;;16.25;;
23222;SDS011;11780;13.904;100.620;2023-04-07T10:11:20;20.97;;;16.17;;
23222;SDS011;11780;13.904;100.620;2023-04-07T10:13:51;20.90;;;16.27;;
23222;SDS011;11780;13.904;100.620;2023-04-07T10:16:22;20.02;;;16.20;;
23222;SDS011;11780;13.904;100.620;2023-04-07T10:18:53;18.30;;;16.13;;
23222;SDS011;11780;13.904;100.620;2023-04-07T10:24:16;21.38;;;16.38;;
23222;SDS011;11780;13.904;100.620;2023-04-07T10:26:56;20.48;;;15.20;;
23222;SDS011;11780;13.904;100.620;2023-04-07T10:32:08;20.33;;;15.30;;
23222;SDS011;11780;13.904;100.620;2023-04-07T10:37:19;19.15;;;16.05;;
23222;SDS011;11780;13.904;100.620;2023-04-07T10:39:51;18.73;;;15.52;;
23222;SDS011;11780;13.904;100.620;2023-04-07T10:42:49;21.70;;;15.65;;
23222;SDS011;11780;13.904;100.620;2023-04-07T10:45:50;17.30;;;15.33;;
23222;SDS011;11780;13.904;100.620;2023-04-07T10:48:20;17.98;;;15.23;;
23222;SDS011;11780;13.904;100.620;2023-04-07T10:51:10;18.88;;;16.00;;
23222;SDS011;11780;13.904;100.620;2023-04-07T10:59:32;18.00;;;15.30;;
23222;SDS011;11780;13.904;100.620;2023-04-07T11:04:43;22.10;;;15.90;;
23222;SDS011;11780;13.904;100.620;2023-04-07T11:07:15;19.38;;;15.65;;
23222;SDS011;11780;13.904;100.620;2023-04-07T11:09:48;21.02;;;15.80;;
23222;SDS011;11780;13.904;100.620;2023-04-07T11:12:22;20.00;;;16.30;;
23222;SDS011;11780;13.904;100.620;2023-04-07T11:14:52;18.95;;;15.38;;
23222;SDS011;11780;13.904;100.620;2023-04-07T11:17:22;21.38;;;16.70;;
23222;SDS011;11780;13.904;100.620;2023-04-07T11:19:53;19.05;;;17.05;;
23222;SDS011;11780;13.904;100.620;2023-04-07T11:22:24;23.20;;;17.75;;
23222;SDS011;11780;13.904;100.620;2023-04-07T11:24:56;18.15;;;15.98;;
23222;SDS011;11780;13.904;100.620;2023-04-07T11:27:27;16.40;;;14.43;;
23222;SDS011;11780;13.904;100.620;2023-04-07T11:32:29;23.00;;;16.37;;
23222;SDS011;11780;13.904;100.620;2023-04-07T11:34:59;18.97;;;16.53;;
23222;SDS011;11780;13.904;100.620;2023-04-07T11:37:30;19.67;;;14.93;;
23222;SDS011;11780;13.904;100.620;2023-04-07T11:40:01;21.75;;;14.43;;
23222;SDS011;11780;13.904;100.620;2023-04-07T11:42:35;22.27;;;15.85;;
23222;SDS011;11780;13.904;100.620;2023-04-07T11:45:16;19.40;;;16.05;;
23222;SDS011;11780;13.904;100.620;2023-04-07T11:47:48;15.55;;;13.93;;
23222;SDS011;11780;13.904;100.620;2023-04-07T11:50:40;15.57;;;13.93;;
23222;SDS011;11780;13.904;100.620;2023-04-07T11:53:10;19.73;;;14.30;;
23222;SDS011;11780;13.904;100.620;2023-04-07T11:55:40;16.40;;;13.50;;
23222;SDS011;11780;13.904;100.620;2023-04-07T11:58:10;15.00;;;13.07;;
23222;SDS011;11780;13.904;100.620;2023-04-07T12:00:53;16.30;;;12.93;;
23222;SDS011;11780;13.904;100.620;2023-04-07T12:03:25;15.48;;;13.57;;
23222;SDS011;11780;13.904;100.620;2023-04-07T12:05:56;16.75;;;12.77;;
23222;SDS011;11780;13.904;100.620;2023-04-07T12:08:39;16.23;;;14.43;;
23222;SDS011;11780;13.904;100.620;2023-04-07T12:11:10;15.50;;;12.75;;
23222;SDS011;11780;13.904;100.620;2023-04-07T12:13:41;18.07;;;13.10;;
23222;SDS011;11780;13.904;100.620;2023-04-07T12:16:12;14.60;;;13.03;;
23222;SDS011;11780;13.904;100.620;2023-04-07T12:18:42;13.55;;;11.48;;
23222;SDS011;11780;13.904;100.620;2023-04-07T12:21:12;15.32;;;12.63;;
23222;SDS011;11780;13.904;100.620;2023-04-07T12:23:43;13.93;;;12.43;;
23222;SDS011;11780;13.904;100.620;2023-04-07T12:26:14;14.57;;;12.30;;
23222;SDS011;11780;13.904;100.620;2023-04-07T12:28:47;16.85;;;12.52;;
23222;SDS011;11780;13.904;100.620;2023-04-07T12:31:17;12.88;;;11.43;;
23222;SDS011;11780;13.904;100.620;2023-04-07T12:33:48;14.40;;;12.20;;
23222;SDS011;11780;13.904;100.620;2023-04-07T12:36:18;13.05;;;11.52;;
23222;SDS011;11780;13.904;100.620;2023-04-07T12:38:49;13.13;;;11.82;;
23222;SDS011;11780;13.904;100.620;2023-04-07T12:41:19;16.77;;;12.90;;
23222;SDS011;11780;13.904;100.620;2023-04-07T12:43:49;15.68;;;12.32;;
23222;SDS011;11780;13.904;100.620;2023-04-07T12:46:19;14.38;;;12.32;;
23222;SDS011;11780;13.904;100.620;2023-04-07T12:48:50;15.50;;;12.10;;
23222;SDS011;11780;13.904;100.620;2023-04-07T12:51:20;15.57;;;12.93;;
23222;SDS011;11780;13.904;100.620;2023-04-07T12:53:50;16.13;;;12.47;;
23222;SDS011;11780;13.904;100.620;2023-04-07T12:56:22;14.82;;;12.00;;
23222;SDS011;11780;13.904;100.620;2023-04-07T12:58:52;15.73;;;12.35;;
23222;SDS011;11780;13.904;100.620;2023-04-07T13:01:23;14.13;;;12.07;;
23222;SDS011;11780;13.904;100.620;2023-04-07T13:03:53;14.50;;;12.27;;
23222;SDS011;11780;13.904;100.620;2023-04-07T13:06:24;12.43;;;11.13;;
23222;SDS011;11780;13.904;100.620;2023-04-07T13:08:55;13.23;;;11.82;;
23222;SDS011;11780;13.904;100.620;2023-04-07T13:11:25;12.48;;;11.18;;
23222;SDS011;11780;13.904;100.620;2023-04-07T13:13:55;13.47;;;12.07;;
23222;SDS011;11780;13.904;100.620;2023-04-07T13:16:27;14.48;;;12.25;;
23222;SDS011;11780;13.904;100.620;2023-04-07T13:18:57;15.23;;;11.97;;
23222;SDS011;11780;13.904;100.620;2023-04-07T13:21:31;13.15;;;11.80;;
23222;SDS011;11780;13.904;100.620;2023-04-07T13:24:13;13.60;;;11.20;;
23222;SDS011;11780;13.904;100.620;2023-04-07T13:26:43;13.82;;;11.55;;
23222;SDS011;11780;13.904;100.620;2023-04-07T13:29:14;14.40;;;12.23;;
23222;SDS011;11780;13.904;100.620;2023-04-07T13:34:15;13.32;;;11.18;;
23222;SDS011;11780;13.904;100.620;2023-04-07T13:36:45;14.07;;;11.50;;
23222;SDS011;11780;13.904;100.620;2023-04-07T13:39:15;13.50;;;11.23;;
23222;SDS011;11780;13.904;100.620;2023-04-07T13:41:45;13.38;;;10.23;;
23222;SDS011;11780;13.904;100.620;2023-04-07T13:44:16;13.10;;;10.40;;
23222;SDS011;11780;13.904;100.620;2023-04-07T13:46:47;13.45;;;9.95;;
23222;SDS011;11780;13.904;100.620;2023-04-07T13:49:17;13.52;;;10.02;;
23222;SDS011;11780;13.904;100.620;2023-04-07T13:51:48;11.10;;;9.52;;
23222;SDS011;11780;13.904;100.620;2023-04-07T13:54:18;10.88;;;9.50;;
23222;SDS011;11780;13.904;100.620;2023-04-07T13:56:48;16.23;;;9.88;;
23222;SDS011;11780;13.904;100.620;2023-04-07T13:59:19;14.02;;;9.68;;
23222;SDS011;11780;13.904;100.620;2023-04-07T14:04:20;11.65;;;9.80;;
23222;SDS011;11780;13.904;100.620;2023-04-07T14:06:51;11.67;;;9.60;;
23222;SDS011;11780;13.904;100.620;2023-04-07T14:09:22;11.30;;;9.65;;
23222;SDS011;11780;13.904;100.620;2023-04-07T14:11:52;14.63;;;9.32;;
23222;SDS011;11780;13.904;100.620;2023-04-07T14:14:22;10.23;;;9.23;;
23222;SDS011;11780;13.904;100.620;2023-04-07T14:19:01;12.70;;;9.75;;
23222;SDS011;11780;13.904;100.620;2023-04-07T14:21:33;11.95;;;9.40;;
23222;SDS011;11780;13.904;100.620;2023-04-07T14:24:03;10.93;;;8.85;;
23222;SDS011;11780;13.904;100.620;2023-04-07T14:26:33;11.93;;;9.10;;
23222;SDS011;11780;13.904;100.620;2023-04-07T14:29:03;10.70;;;9.60;;
23222;SDS011;11780;13.904;100.620;2023-04-07T14:31:33;11.50;;;9.63;;
23222;SDS011;11780;13.904;100.620;2023-04-07T14:34:03;10.57;;;8.88;;
23222;SDS011;11780;13.904;100.620;2023-04-07T14:36:35;10.38;;;9.27;;
23222;SDS011;11780;13.904;100.620;2023-04-07T14:39:06;12.73;;;10.57;;
23222;SDS011;11780;13.904;100.620;2023-04-07T14:41:37;12.70;;;9.52;;
23222;SDS011;11780;13.904;100.620;2023-04-07T14:44:07;12.10;;;9.30;;
23222;SDS011;11780;13.904;100.620;2023-04-07T14:46:37;10.45;;;9.40;;
23222;SDS011;11780;13.904;100.620;2023-04-07T14:49:07;10.03;;;8.43;;
23222;SDS011;11780;13.904;100.620;2023-04-07T14:51:38;10.70;;;9.60;;
23222;SDS011;11780;13.904;100.620;2023-04-07T14:54:08;18.88;;;9.63;;
23222;SDS011;11780;13.904;100.620;2023-04-07T14:56:38;15.55;;;10.10;;
23222;SDS011;11780;13.904;100.620;2023-04-07T14:59:09;14.73;;;9.85;;
23222;SDS011;11780;13.904;100.620;2023-04-07T15:01:39;12.25;;;10.25;;
23222;SDS011;11780;13.904;100.620;2023-04-07T15:04:10;12.45;;;9.77;;
23222;SDS011;11780;13.904;100.620;2023-04-07T15:06:40;14.00;;;10.53;;
23222;SDS011;11780;13.904;100.620;2023-04-07T15:09:13;13.15;;;10.88;;
23222;SDS011;11780;13.904;100.620;2023-04-07T15:11:43;12.03;;;9.97;;
23222;SDS011;11780;13.904;100.620;2023-04-07T15:14:17;14.45;;;10.30;;
23222;SDS011;11780;13.904;100.620;2023-04-07T15:16:47;16.25;;;10.05;;
23222;SDS011;11780;13.904;100.620;2023-04-07T15:22:58;13.88;;;9.95;;
23222;SDS011;11780;13.904;100.620;2023-04-07T15:25:29;17.25;;;10.07;;
23222;SDS011;11780;13.904;100.620;2023-04-07T15:28:00;16.13;;;10.00;;